Dades meteomassalio
Diari Summary for Abril 15, 2017 Units:  Metric    English   Both
« Previous Day
Next Day »
Diari Semanal Mensual Anual Personalitzat
  Maxima: Minima: Mijana:
Temperatura: 21.9 °C 11.4 °C 16.6 °C
Rosada: 9.7 °C 5.5 °C 7.4 °C
Humitat: 72 % 44 % 56 %
Velocitat del vent: 42.6 km/h 0.0 km/h 15.5 km/h
Racha vent: 42.6 km/h - -
Vent:- - WNW
Pressio: 1021.9 hPa 1015.8 hPa -
Pluja: 0.0 mm    
Historical Graphs
 
 
Tabular Data for Abril 15, 2017
Time Temperature Dew Point Pressure Wind Wind Speed Wind Gust Humidity Rainfall Rate (Hourly) solar Conditions
00:03 18.3 °C 5.8 °C 1015.8 hPa West 5.6 km/h 5.6 km/h 44 % 0.0 mm 0.0 W/m2 CLR
00:08 18.5 °C 6.0 °C 1015.8 hPa Calm     44 % 0.0 mm 0.0 W/m2 CLR
00:13 18.3 °C 6.2 °C 1015.8 hPa Calm     45 % 0.0 mm 0.0 W/m2 CLR
00:18 17.9 °C 6.1 °C 1015.8 hPa Calm     46 % 0.0 mm 0.0 W/m2 CLR
00:23 17.7 °C 6.2 °C 1016.1 hPa Calm     47 % 0.0 mm 0.0 W/m2 CLR
00:28 17.6 °C 5.8 °C 1016.1 hPa WNW 7.4 km/h 7.4 km/h 46 % 0.0 mm 0.0 W/m2 CLR
00:33 18.1 °C 5.7 °C 1016.1 hPa West 6.4 km/h 6.4 km/h 44 % 0.0 mm 0.0 W/m2 CLR
00:38 18.6 °C 6.1 °C 1016.1 hPa Calm     44 % 0.0 mm 0.0 W/m2 CLR
00:43 18.2 °C 6.4 °C 1016.1 hPa Calm     46 % 0.0 mm 0.0 W/m2 CLR
00:48 17.7 °C 5.9 °C 1016.1 hPa Calm     46 % 0.0 mm 0.0 W/m2 CLR
00:53 17.3 °C 6.2 °C 1016.5 hPa Calm     48 % 0.0 mm 0.0 W/m2 CLR
00:58 16.9 °C 6.2 °C 1016.5 hPa Calm     49 % 0.0 mm 0.0 W/m2 CLR
01:03 16.4 °C 6.0 °C 1016.5 hPa Calm     50 % 0.0 mm 0.0 W/m2 CLR
01:08 16.1 °C 5.9 °C 1016.5 hPa NNW 12.9 km/h 12.9 km/h 51 % 0.0 mm 0.0 W/m2 CLR
01:13 16.9 °C 5.8 °C 1016.8 hPa NW 6.4 km/h 6.4 km/h 48 % 0.0 mm 0.0 W/m2 CLR
01:18 17.3 °C 5.8 °C 1016.8 hPa NW 7.4 km/h 7.4 km/h 47 % 0.0 mm 0.0 W/m2 CLR
01:23 17.3 °C 6.2 °C 1016.8 hPa NW 9.3 km/h 9.3 km/h 48 % 0.0 mm 0.0 W/m2 CLR
01:28 17.2 °C 6.3 °C 1016.8 hPa NW 9.7 km/h 9.7 km/h 49 % 0.0 mm 0.0 W/m2 CLR
01:33 17.1 °C 6.3 °C 1016.8 hPa WNW 7.4 km/h 7.4 km/h 49 % 0.0 mm 0.0 W/m2 CLR
01:38 17.1 °C 6.3 °C 1016.8 hPa WNW 7.4 km/h 7.4 km/h 49 % 0.0 mm 0.0 W/m2 CLR
01:43 17.0 °C 6.5 °C 1016.8 hPa NW 5.6 km/h 5.6 km/h 50 % 0.0 mm 0.0 W/m2 CLR
01:48 16.9 °C 6.4 °C 1016.8 hPa WNW 5.6 km/h 5.6 km/h 50 % 0.0 mm 0.0 W/m2 CLR
01:53 16.8 °C 6.3 °C 1016.8 hPa Calm     50 % 0.0 mm 0.0 W/m2 CLR
01:58 16.4 °C 6.2 °C 1016.8 hPa Calm     51 % 0.0 mm 0.0 W/m2 CLR
02:03 16.0 °C 6.2 °C 1016.8 hPa Calm     52 % 0.0 mm 0.0 W/m2 CLR
02:08 15.7 °C 6.1 °C 1016.8 hPa Calm     53 % 0.0 mm 0.0 W/m2 CLR
02:13 15.4 °C 5.8 °C 1017.2 hPa Calm     53 % 0.0 mm 0.0 W/m2 CLR
02:18 15.1 °C 5.8 °C 1017.2 hPa Calm     54 % 0.0 mm 0.0 W/m2 CLR
02:23 14.8 °C 6.1 °C 1017.2 hPa WSW 1.6 km/h 1.6 km/h 56 % 0.0 mm 0.0 W/m2 CLR
02:28 14.6 °C 5.9 °C 1017.2 hPa Calm     56 % 0.0 mm 0.0 W/m2 CLR
02:33 14.3 °C 5.9 °C 1017.2 hPa Calm     57 % 0.0 mm 0.0 W/m2 CLR
02:38 14.1 °C 5.9 °C 1017.2 hPa SW 7.4 km/h   58 % 0.0 mm 0.0 W/m2 CLR
02:43 14.0 °C 5.8 °C 1017.2 hPa Calm     58 % 0.0 mm 0.0 W/m2 CLR
02:48 13.9 °C 5.5 °C 1017.5 hPa Calm     57 % 0.0 mm 0.0 W/m2 CLR
02:53 13.9 °C 5.6 °C 1017.2 hPa West 5.6 km/h 5.6 km/h 57 % 0.0 mm 0.0 W/m2 CLR
02:58 14.6 °C 5.7 °C 1017.2 hPa West 5.6 km/h 5.6 km/h 55 % 0.0 mm 0.0 W/m2 CLR
03:03 15.2 °C 5.7 °C 1017.2 hPa West 6.4 km/h 6.4 km/h 53 % 0.0 mm 0.0 W/m2 CLR
03:08 15.3 °C 5.8 °C 1017.5 hPa West 13.0 km/h 13.0 km/h 53 % 0.0 mm 0.0 W/m2 CLR
03:13 15.6 °C 6.0 °C 1017.5 hPa WNW 5.6 km/h 5.6 km/h 53 % 0.0 mm 0.0 W/m2 CLR
03:18 15.4 °C 5.9 °C 1017.2 hPa SW 7.4 km/h 7.4 km/h 53 % 0.0 mm 0.0 W/m2 CLR
03:23 15.2 °C 5.9 °C 1017.5 hPa SSW 4.8 km/h 4.8 km/h 54 % 0.0 mm 0.0 W/m2 CLR
03:28 14.8 °C 5.9 °C 1017.5 hPa Calm     55 % 0.0 mm 0.0 W/m2 CLR
03:33 14.7 °C 6.2 °C 1017.8 hPa West 5.6 km/h   57 % 0.0 mm 0.0 W/m2 CLR
03:38 14.7 °C 6.6 °C 1017.5 hPa West 5.6 km/h   58 % 0.0 mm 0.0 W/m2 CLR
03:43 14.7 °C 6.6 °C 1017.5 hPa West 5.6 km/h 5.6 km/h 58 % 0.0 mm 0.0 W/m2 CLR
03:48 14.7 °C 6.6 °C 1017.8 hPa Calm     58 % 0.0 mm 0.0 W/m2 CLR
03:53 14.7 °C 6.8 °C 1017.8 hPa West 14.8 km/h 14.8 km/h 59 % 0.0 mm 0.0 W/m2 CLR
03:58 14.8 °C 6.8 °C 1017.8 hPa West 18.5 km/h 18.5 km/h 59 % 0.0 mm 0.0 W/m2 CLR
04:03 14.7 °C 6.8 °C 1017.8 hPa West 11.1 km/h 11.1 km/h 59 % 0.0 mm 0.0 W/m2 CLR
04:08 14.7 °C 6.7 °C 1018.2 hPa West 3.7 km/h 3.7 km/h 59 % 0.0 mm 0.0 W/m2 CLR
04:13 14.6 °C 6.9 °C 1017.8 hPa Calm     60 % 0.0 mm 0.0 W/m2 CLR
04:18 14.4 °C 6.9 °C 1017.8 hPa West 7.4 km/h 7.4 km/h 61 % 0.0 mm 0.0 W/m2 CLR
04:23 14.3 °C 6.8 °C 1017.8 hPa WNW 14.8 km/h 14.8 km/h 61 % 0.0 mm 0.0 W/m2 CLR
04:28 14.2 °C 7.0 °C 1018.2 hPa West 13.0 km/h 13.0 km/h 62 % 0.0 mm 0.0 W/m2 CLR
04:33 14.1 °C 6.9 °C 1018.2 hPa WNW 6.4 km/h 6.4 km/h 62 % 0.0 mm 0.0 W/m2 CLR
04:38 14.0 °C 6.8 °C 1018.2 hPa WNW 4.8 km/h 4.8 km/h 62 % 0.0 mm 0.0 W/m2 CLR
04:39 14.0 °C 6.8 °C 1018.2 hPa WNW 4.8 km/h 4.8 km/h 62 % 0.0 mm 0.0 W/m2 CLR
04:44 13.9 °C 6.9 °C 1018.2 hPa West 9.3 km/h 9.3 km/h 63 % 0.0 mm 0.0 W/m2 CLR
04:49 13.8 °C 6.9 °C 1018.2 hPa West 5.6 km/h 5.6 km/h 63 % 0.0 mm 0.0 W/m2 CLR
04:54 13.7 °C 6.8 °C 1018.2 hPa West 8.0 km/h 8.0 km/h 63 % 0.0 mm 0.0 W/m2 CLR
04:59 13.7 °C 6.7 °C 1018.2 hPa West 11.1 km/h 11.1 km/h 63 % 0.0 mm 0.0 W/m2 CLR
05:04 13.6 °C 6.9 °C 1018.2 hPa WSW 7.4 km/h 7.4 km/h 64 % 0.0 mm 0.0 W/m2 CLR
05:09 13.4 °C 6.8 °C 1018.2 hPa West 3.2 km/h 3.2 km/h 64 % 0.0 mm 0.0 W/m2 CLR
05:14 13.4 °C 6.7 °C 1018.2 hPa West 9.3 km/h 9.3 km/h 64 % 0.0 mm 0.0 W/m2 CLR
05:19 13.3 °C 6.7 °C 1018.2 hPa West 8.0 km/h 8.0 km/h 64 % 0.0 mm 0.0 W/m2 CLR
05:24 13.3 °C 6.6 °C 1018.2 hPa West 6.4 km/h 6.4 km/h 64 % 0.0 mm 0.0 W/m2 CLR
05:29 13.2 °C 6.7 °C 1018.2 hPa Calm     65 % 0.0 mm 0.0 W/m2 CLR
05:34 13.1 °C 6.6 °C 1018.5 hPa West 9.3 km/h 9.3 km/h 65 % 0.0 mm 0.0 W/m2 CLR
05:39 13.1 °C 6.6 °C 1018.5 hPa West 7.4 km/h 7.4 km/h 65 % 0.0 mm 0.0 W/m2 CLR
05:44 12.9 °C 6.5 °C 1018.5 hPa West 7.4 km/h 7.4 km/h 65 % 0.0 mm 0.0 W/m2 CLR
05:49 12.8 °C 6.6 °C 1018.5 hPa West 5.6 km/h 5.6 km/h 66 % 0.0 mm 0.0 W/m2 CLR
05:54 12.7 °C 6.7 °C 1018.5 hPa Calm     67 % 0.0 mm 0.0 W/m2 CLR
05:59 12.6 °C 6.6 °C 1018.5 hPa Calm     67 % 0.0 mm 0.0 W/m2 CLR
06:04 12.5 °C 6.8 °C 1018.5 hPa Calm     68 % 0.0 mm 0.0 W/m2 CLR
06:09 12.4 °C 6.7 °C 1018.5 hPa Calm     68 % 0.0 mm 0.0 W/m2 CLR
06:14 12.2 °C 6.5 °C 1018.5 hPa Calm     68 % 0.0 mm 0.0 W/m2 CLR
06:19 12.2 °C 6.7 °C 1018.5 hPa Calm     69 % 0.0 mm 0.0 W/m2 CLR
06:24 12.1 °C 6.6 °C 1018.5 hPa Calm     69 % 0.0 mm 0.0 W/m2 CLR
06:29 12.0 °C 6.7 °C 1018.5 hPa Calm     70 % 0.0 mm 0.0 W/m2 CLR
06:34 11.9 °C 6.6 °C 1018.5 hPa Calm     70 % 0.0 mm 0.0 W/m2 CLR
06:39 11.8 °C 6.6 °C 1018.5 hPa Calm     70 % 0.0 mm 0.0 W/m2 CLR
06:44 11.7 °C 6.6 °C 1018.5 hPa Calm     71 % 0.0 mm 0.0 W/m2 CLR
06:49 11.7 °C 6.6 °C 1018.5 hPa WSW 5.6 km/h 5.6 km/h 71 % 0.0 mm 0.0 W/m2 CLR
06:54 11.6 °C 6.5 °C 1018.5 hPa WSW 1.9 km/h   71 % 0.0 mm 0.0 W/m2 CLR
06:59 11.6 °C 6.5 °C 1018.8 hPa Calm     71 % 0.0 mm 0.0 W/m2 CLR
07:04 11.5 °C 6.4 °C 1018.8 hPa Calm     71 % 0.0 mm 0.0 W/m2 CLR
07:09 11.4 °C 6.6 °C 1018.8 hPa Calm     72 % 0.0 mm 0.0 W/m2 CLR
07:14 11.4 °C 6.5 °C 1018.5 hPa WSW 5.6 km/h 5.6 km/h 72 % 0.0 mm 0.0 W/m2 OVC
07:19 11.4 °C 6.5 °C 1018.8 hPa Calm     72 % 0.0 mm 0.0 W/m2 OVC
07:24 11.4 °C 6.5 °C 1018.8 hPa Calm     72 % 0.0 mm 0.0 W/m2 OVC
07:29 11.5 °C 6.6 °C 1018.8 hPa WNW 8.0 km/h 8.0 km/h 72 % 0.0 mm 7.0 W/m2 BKN
07:34 11.8 °C 6.7 °C 1018.8 hPa West 9.3 km/h 9.3 km/h 71 % 0.0 mm 12.0 W/m2 BKN
07:39 12.1 °C 6.9 °C 1019.2 hPa WNW 6.4 km/h 6.4 km/h 71 % 0.0 mm 19.0 W/m2 BKN
07:44 12.1 °C 6.8 °C 1019.2 hPa West 11.1 km/h 11.1 km/h 70 % 0.0 mm 26.0 W/m2 BKN
07:49 12.2 °C 6.9 °C 1019.2 hPa West 8.0 km/h 8.0 km/h 70 % 0.0 mm 35.0 W/m2 BKN
07:54 12.3 °C 7.0 °C 1019.2 hPa West 9.3 km/h 9.3 km/h 70 % 0.0 mm 47.0 W/m2 SCT
07:59 12.3 °C 7.0 °C 1019.5 hPa WSW 5.6 km/h 5.6 km/h 70 % 0.0 mm 58.0 W/m2 SCT
08:04 12.4 °C 7.1 °C 1019.5 hPa West 3.7 km/h 3.7 km/h 70 % 0.0 mm 65.0 W/m2 SCT
08:09 12.4 °C 7.1 °C 1019.5 hPa West 14.8 km/h 14.8 km/h 70 % 0.0 mm 70.0 W/m2 FEW
08:14 12.5 °C 6.9 °C 1019.5 hPa SW 7.4 km/h 7.4 km/h 69 % 0.0 mm 83.0 W/m2 FEW
08:15 12.5 °C 6.9 °C 1019.5 hPa SW 6.4 km/h 6.4 km/h 69 % 0.0 mm 84.0 W/m2 FEW
08:20 12.6 °C 7.0 °C 1019.5 hPa WSW 14.8 km/h 14.8 km/h 69 % 0.0 mm 102.0 W/m2 CLR
08:25 12.6 °C 7.1 °C 1019.5 hPa WSW 11.3 km/h 11.3 km/h 69 % 0.0 mm 98.0 W/m2 CLR
08:30 12.7 °C 7.2 °C 1019.9 hPa West 18.5 km/h 18.5 km/h 69 % 0.0 mm 93.0 W/m2 CLR
08:35 12.8 °C 7.2 °C 1019.9 hPa West 8.0 km/h 8.0 km/h 69 % 0.0 mm 130.0 W/m2 CLR
08:40 12.9 °C 7.3 °C 1019.9 hPa West 20.4 km/h 20.4 km/h 69 % 0.0 mm 171.0 W/m2 CLR
08:45 13.0 °C 7.4 °C 1019.9 hPa West 9.7 km/h 9.7 km/h 69 % 0.0 mm 183.0 W/m2 CLR
08:50 13.2 °C 7.4 °C 1019.9 hPa West 20.4 km/h 20.4 km/h 68 % 0.0 mm 213.0 W/m2 CLR
08:55 13.2 °C 7.4 °C 1019.9 hPa WNW 25.9 km/h 25.9 km/h 68 % 0.0 mm 229.0 W/m2 CLR
09:00 13.4 °C 7.4 °C 1019.9 hPa West 14.8 km/h 14.8 km/h 67 % 0.0 mm 162.0 W/m2 CLR
09:05 13.5 °C 7.5 °C 1019.9 hPa WNW 17.7 km/h 17.7 km/h 67 % 0.0 mm 192.0 W/m2 CLR
09:10 13.5 °C 7.5 °C 1019.9 hPa WNW 20.4 km/h 20.4 km/h 67 % 0.0 mm 234.0 W/m2 CLR
09:15 13.5 °C 7.5 °C 1019.9 hPa WNW 16.1 km/h 16.1 km/h 67 % 0.0 mm 248.0 W/m2 CLR
09:20 13.7 °C 7.7 °C 1019.9 hPa WNW 11.1 km/h 11.1 km/h 67 % 0.0 mm 253.0 W/m2 CLR
09:26 13.9 °C 7.8 °C 1019.9 hPa WNW 29.6 km/h 29.6 km/h 67 % 0.0 mm 350.0 W/m2 CLR
09:31 14.0 °C 7.7 °C 1019.9 hPa West 14.5 km/h 15.6 km/h 66 % 0.0 mm 334.0 W/m2 CLR
09:36 13.9 °C 7.7 °C 1019.9 hPa NW 20.4 km/h 20.4 km/h 66 % 0.0 mm 251.0 W/m2 CLR
09:41 14.0 °C 7.7 °C 1020.2 hPa WNW 16.1 km/h 16.1 km/h 66 % 0.0 mm 297.0 W/m2 CLR
09:46 14.0 °C 7.7 °C 1020.2 hPa West 24.1 km/h 24.1 km/h 66 % 0.0 mm 274.0 W/m2 CLR
09:51 14.1 °C 7.8 °C 1020.2 hPa WNW 18.5 km/h 18.5 km/h 66 % 0.0 mm 236.0 W/m2 CLR
09:56 14.1 °C 7.8 °C 1020.2 hPa WNW 24.1 km/h 24.1 km/h 66 % 0.0 mm 288.0 W/m2 CLR
10:01 14.2 °C 7.9 °C 1020.2 hPa WNW 27.8 km/h 27.8 km/h 66 % 0.0 mm 332.0 W/m2 CLR
10:06 14.3 °C 8.1 °C 1020.2 hPa NW 20.4 km/h 20.4 km/h 66 % 0.0 mm 378.0 W/m2 CLR
10:11 14.6 °C 8.1 °C 1020.2 hPa WNW 18.5 km/h 18.5 km/h 65 % 0.0 mm 404.0 W/m2 CLR
10:16 14.7 °C 8.2 °C 1020.2 hPa WNW 18.5 km/h 18.5 km/h 65 % 0.0 mm 313.0 W/m2 CLR
10:21 14.7 °C 7.9 °C 1020.2 hPa WNW 19.3 km/h 19.3 km/h 64 % 0.0 mm 253.0 W/m2 CLR
10:26 14.5 °C 8.0 °C 1019.9 hPa WNW 22.2 km/h 22.2 km/h 65 % 0.0 mm 311.0 W/m2 CLR
10:31 14.6 °C 8.1 °C 1019.9 hPa West 20.4 km/h 20.4 km/h 65 % 0.0 mm 285.0 W/m2 CLR
10:36 14.7 °C 8.2 °C 1020.2 hPa West 25.9 km/h 25.9 km/h 65 % 0.0 mm 285.0 W/m2 CLR
10:41 14.6 °C 8.1 °C 1020.2 hPa NW 18.5 km/h 18.5 km/h 65 % 0.0 mm 404.0 W/m2 CLR
10:46 14.8 °C 8.1 °C 1020.2 hPa West 14.8 km/h 14.8 km/h 64 % 0.0 mm 283.0 W/m2 CLR
10:51 14.9 °C 8.1 °C 1020.2 hPa WNW 22.2 km/h 22.2 km/h 64 % 0.0 mm 362.0 W/m2 CLR
10:56 15.0 °C 8.2 °C 1020.2 hPa West 16.7 km/h 16.7 km/h 64 % 0.0 mm 415.0 W/m2 CLR
11:01 15.2 °C 8.4 °C 1020.2 hPa WNW 3.7 km/h 3.7 km/h 64 % 0.0 mm 288.0 W/m2 CLR
11:06 15.3 °C 8.3 °C 1019.9 hPa West 19.3 km/h 19.3 km/h 63 % 0.0 mm 285.0 W/m2 CLR
11:11 15.2 °C 8.2 °C 1020.2 hPa West 16.7 km/h 16.7 km/h 63 % 0.0 mm 257.0 W/m2 CLR
11:16 15.4 °C 8.4 °C 1019.9 hPa WNW 16.7 km/h 16.7 km/h 63 % 0.0 mm 380.0 W/m2 CLR
11:21 15.6 °C 8.3 °C 1020.2 hPa West 27.8 km/h 27.8 km/h 62 % 0.0 mm 512.0 W/m2 CLR
11:26 15.8 °C 8.3 °C 1020.2 hPa NW 18.5 km/h 18.5 km/h 61 % 0.0 mm 413.0 W/m2 CLR
11:31 15.8 °C 8.5 °C 1019.9 hPa West 18.5 km/h 18.5 km/h 62 % 0.0 mm 473.0 W/m2 CLR
11:36 15.9 °C 8.6 °C 1019.9 hPa WNW 14.8 km/h 14.8 km/h 62 % 0.0 mm 429.0 W/m2 CLR
11:41 16.3 °C 8.5 °C 1019.9 hPa WNW 18.5 km/h 18.5 km/h 60 % 0.0 mm 471.0 W/m2 CLR
11:46 16.3 °C 8.8 °C 1019.9 hPa WNW 22.2 km/h 22.2 km/h 61 % 0.0 mm 589.0 W/m2 CLR
11:51 16.5 °C 8.7 °C 1019.9 hPa NNW 18.5 km/h 18.5 km/h 60 % 0.0 mm 403.0 W/m2 CLR
11:56 16.4 °C 8.3 °C 1019.9 hPa West 18.5 km/h 18.5 km/h 59 % 0.0 mm 392.0 W/m2 CLR
12:01 16.4 °C 8.4 °C 1019.9 hPa West 18.5 km/h 18.5 km/h 59 % 0.0 mm 367.0 W/m2 CLR
12:06 16.5 °C 8.4 °C 1019.9 hPa West 20.4 km/h 20.4 km/h 59 % 0.0 mm 388.0 W/m2 CLR
12:11 16.4 °C 8.6 °C 1019.9 hPa NW 7.4 km/h 7.4 km/h 60 % 0.0 mm 373.0 W/m2 CLR
12:16 16.6 °C 8.3 °C 1019.5 hPa NNW 14.8 km/h 14.8 km/h 58 % 0.0 mm 348.0 W/m2 CLR
12:21 16.9 °C 8.6 °C 1019.5 hPa NW 7.4 km/h 7.4 km/h 58 % 0.0 mm 360.0 W/m2 CLR
12:26 17.2 °C 8.6 °C 1019.9 hPa WNW 14.8 km/h 14.8 km/h 57 % 0.0 mm 315.0 W/m2 CLR
12:31 17.3 °C 8.4 °C 1019.5 hPa NW 18.5 km/h 18.5 km/h 56 % 0.0 mm 359.0 W/m2 CLR
12:36 17.2 °C 8.1 °C 1019.9 hPa West 27.8 km/h 27.8 km/h 55 % 0.0 mm 383.0 W/m2 CLR
12:41 17.2 °C 8.4 °C 1019.9 hPa NW 17.7 km/h 17.7 km/h 56 % 0.0 mm 436.0 W/m2 CLR
12:46 17.5 °C 8.3 °C 1019.9 hPa NW 20.4 km/h 20.4 km/h 55 % 0.0 mm 457.0 W/m2 CLR
12:51 17.5 °C 8.1 °C 1019.9 hPa NW 19.3 km/h 19.3 km/h 54 % 0.0 mm 554.0 W/m2 CLR
12:56 17.9 °C 8.7 °C 1019.5 hPa West 18.5 km/h 18.5 km/h 55 % 0.0 mm 557.0 W/m2 CLR
12:57 17.9 °C 8.8 °C 1019.5 hPa NW 11.1 km/h 11.1 km/h 55 % 0.0 mm 492.0 W/m2 CLR
13:02 18.2 °C 8.5 °C 1019.5 hPa WNW 18.5 km/h 18.5 km/h 53 % 0.0 mm 446.0 W/m2 CLR
13:07 18.1 °C 8.4 °C 1019.5 hPa NW 18.5 km/h 18.5 km/h 53 % 0.0 mm 557.0 W/m2 CLR
13:12 18.0 °C 8.6 °C 1019.5 hPa NW 16.7 km/h 16.7 km/h 54 % 0.0 mm 469.0 W/m2 CLR
13:17 18.0 °C 8.6 °C 1019.5 hPa WNW 20.4 km/h 20.4 km/h 54 % 0.0 mm 431.0 W/m2 CLR
13:22 18.0 °C 8.3 °C 1019.5 hPa NW 29.6 km/h 29.6 km/h 53 % 0.0 mm 591.0 W/m2 CLR
13:27 18.1 °C 8.7 °C 1019.5 hPa WNW 18.5 km/h 18.5 km/h 54 % 0.0 mm 512.0 W/m2 CLR
13:32 18.4 °C 8.9 °C 1019.5 hPa NW 24.1 km/h 24.1 km/h 54 % 0.0 mm 752.0 W/m2 CLR
13:37 18.4 °C 8.6 °C 1019.5 hPa WNW 18.5 km/h 18.5 km/h 53 % 0.0 mm 499.0 W/m2 CLR
13:42 18.5 °C 8.7 °C 1019.2 hPa West 18.5 km/h 18.5 km/h 53 % 0.0 mm 468.0 W/m2 CLR
13:47 18.8 °C 9.0 °C 1019.2 hPa West 13.0 km/h 13.0 km/h 53 % 0.0 mm 993.0 W/m2 CLR
13:52 19.3 °C 8.9 °C 1019.2 hPa WNW 14.8 km/h 14.8 km/h 51 % 0.0 mm 921.0 W/m2 CLR
13:57 19.4 °C 9.1 °C 1019.2 hPa NW 14.8 km/h 14.8 km/h 51 % 0.0 mm 891.0 W/m2 CLR
14:02 19.6 °C 8.8 °C 1018.8 hPa NW 22.2 km/h 22.2 km/h 50 % 0.0 mm 881.0 W/m2 CLR
14:07 19.4 °C 9.0 °C 1018.8 hPa NNW 20.4 km/h 20.4 km/h 51 % 0.0 mm 863.0 W/m2 CLR
14:12 19.7 °C 8.9 °C 1018.8 hPa NNW 20.4 km/h 20.4 km/h 50 % 0.0 mm 870.0 W/m2 CLR
14:17 19.7 °C 8.7 °C 1018.8 hPa West 19.3 km/h 19.3 km/h 49 % 0.0 mm 863.0 W/m2 CLR
14:22 19.9 °C 9.2 °C 1018.8 hPa NW 5.6 km/h 5.6 km/h 50 % 0.0 mm 853.0 W/m2 CLR
14:27 20.1 °C 9.1 °C 1018.5 hPa NW 20.4 km/h 20.4 km/h 49 % 0.0 mm 854.0 W/m2 CLR
14:32 20.6 °C 9.2 °C 1018.5 hPa NNW 18.5 km/h 18.5 km/h 48 % 0.0 mm 849.0 W/m2 CLR
14:37 20.7 °C 8.9 °C 1018.5 hPa WNW 22.2 km/h 22.2 km/h 47 % 0.0 mm 846.0 W/m2 CLR
14:42 20.8 °C 8.8 °C 1018.5 hPa WNW 22.2 km/h 22.2 km/h 46 % 0.0 mm 846.0 W/m2 CLR
14:47 20.7 °C 9.0 °C 1018.5 hPa West 5.6 km/h 5.6 km/h 47 % 0.0 mm 858.0 W/m2 CLR
14:52 21.1 °C 8.7 °C 1018.5 hPa NW 20.4 km/h 20.4 km/h 45 % 0.0 mm 754.0 W/m2 CLR
14:57 21.2 °C 8.8 °C 1018.2 hPa NW 27.8 km/h 27.8 km/h 45 % 0.0 mm 754.0 W/m2 CLR
15:02 21.2 °C 8.8 °C 1018.5 hPa WNW 19.3 km/h 19.3 km/h 45 % 0.0 mm 304.0 W/m2 CLR
15:07 20.8 °C 8.8 °C 1018.2 hPa NW 24.1 km/h 24.1 km/h 46 % 0.0 mm 594.0 W/m2 CLR
15:12 21.0 °C 8.9 °C 1018.2 hPa NW 29.6 km/h 29.6 km/h 46 % 0.0 mm 594.0 W/m2 CLR
15:17 20.9 °C 8.9 °C 1018.2 hPa NW 16.7 km/h 16.7 km/h 46 % 0.0 mm 355.0 W/m2 CLR
15:22 21.1 °C 9.0 °C 1018.2 hPa North 22.5 km/h 22.5 km/h 46 % 0.0 mm 703.0 W/m2 CLR
15:27 21.0 °C 9.3 °C 1018.2 hPa NW 19.3 km/h 19.3 km/h 47 % 0.0 mm 844.0 W/m2 CLR
15:32 21.1 °C 9.1 °C 1018.2 hPa NW 20.4 km/h 20.4 km/h 46 % 0.0 mm 882.0 W/m2 CLR
15:37 20.9 °C 9.2 °C 1017.8 hPa NW 17.7 km/h 17.7 km/h 47 % 0.0 mm 204.0 W/m2 CLR
15:42 21.2 °C 9.1 °C 1017.8 hPa WNW 24.1 km/h 24.1 km/h 46 % 0.0 mm 793.0 W/m2 CLR
15:47 21.4 °C 9.3 °C 1017.8 hPa NW 27.4 km/h 27.4 km/h 46 % 0.0 mm 784.0 W/m2 CLR
15:52 21.6 °C 9.1 °C 1017.8 hPa NW 19.3 km/h 19.3 km/h 45 % 0.0 mm 786.0 W/m2 CLR
15:57 21.7 °C 9.2 °C 1017.8 hPa NW 24.1 km/h 24.1 km/h 45 % 0.0 mm 779.0 W/m2 CLR
16:02 21.7 °C 8.9 °C 1017.8 hPa NW 32.2 km/h 32.2 km/h 44 % 0.0 mm 761.0 W/m2 CLR
16:07 21.7 °C 8.9 °C 1017.8 hPa WNW 25.9 km/h 25.9 km/h 44 % 0.0 mm 747.0 W/m2 CLR
16:12 21.8 °C 9.7 °C 1017.5 hPa NNW 25.7 km/h 25.7 km/h 46 % 0.0 mm 742.0 W/m2 CLR
16:17 21.8 °C 9.1 °C 1017.8 hPa NW 22.2 km/h 22.2 km/h 44 % 0.0 mm 761.0 W/m2 CLR
16:22 21.8 °C 9.4 °C 1017.5 hPa NNW 29.6 km/h 29.6 km/h 45 % 0.0 mm 775.0 W/m2 CLR
16:27 21.9 °C 9.1 °C 1017.5 hPa NNW 25.9 km/h 25.9 km/h 44 % 0.0 mm 635.0 W/m2 CLR
16:32 21.9 °C 9.1 °C 1017.5 hPa NW 13.0 km/h 13.0 km/h 44 % 0.0 mm 316.0 W/m2 CLR
16:37 21.5 °C 8.7 °C 1017.5 hPa NW 31.5 km/h 31.5 km/h 44 % 0.0 mm 322.0 W/m2 CLR
16:42 21.2 °C 8.5 °C 1017.5 hPa North 24.1 km/h 24.1 km/h 44 % 0.0 mm 320.0 W/m2 CLR
16:47 21.0 °C 8.6 °C 1017.5 hPa NNW 22.2 km/h 22.2 km/h 45 % 0.0 mm 313.0 W/m2 CLR
16:52 20.9 °C 8.9 °C 1017.5 hPa NNW 20.9 km/h 20.9 km/h 46 % 0.0 mm 366.0 W/m2 CLR
16:57 21.0 °C 8.9 °C 1017.5 hPa North 22.5 km/h 22.5 km/h 46 % 0.0 mm 650.0 W/m2 CLR
17:02 21.6 °C 9.4 °C 1017.5 hPa NNW 42.6 km/h 42.6 km/h 46 % 0.0 mm 708.0 W/m2 CLR
17:07 21.5 °C 8.7 °C 1017.5 hPa NW 33.3 km/h 33.3 km/h 44 % 0.0 mm 408.0 W/m2 CLR
17:12 21.5 °C 8.7 °C 1017.5 hPa NNW 31.5 km/h 31.5 km/h 44 % 0.0 mm 585.0 W/m2 CLR
17:17 21.2 °C 8.8 °C 1017.5 hPa NNW 29.0 km/h 29.0 km/h 45 % 0.0 mm 439.0 W/m2 CLR
17:22 20.8 °C 8.4 °C 1017.5 hPa NW 31.5 km/h 31.5 km/h 45 % 0.0 mm 239.0 W/m2 CLR
17:27 20.6 °C 8.6 °C 1017.5 hPa NNW 31.5 km/h 31.5 km/h 46 % 0.0 mm 267.0 W/m2 CLR
17:32 20.7 °C 8.9 °C 1017.5 hPa NW 25.9 km/h 25.9 km/h 47 % 0.0 mm 343.0 W/m2 CLR
17:37 20.8 °C 8.8 °C 1017.5 hPa WNW 27.8 km/h 27.8 km/h 46 % 0.0 mm 255.0 W/m2 CLR
17:42 20.6 °C 8.8 °C 1017.5 hPa WNW 18.5 km/h 18.5 km/h 47 % 0.0 mm 218.0 W/m2 CLR
17:47 20.4 °C 8.7 °C 1017.5 hPa WNW 22.2 km/h 22.2 km/h 47 % 0.0 mm 255.0 W/m2 CLR
17:52 20.6 °C 8.8 °C 1017.2 hPa NNW 18.5 km/h 18.5 km/h 47 % 0.0 mm 236.0 W/m2 CLR
17:58 20.6 °C 8.9 °C 1017.2 hPa NW 20.9 km/h 20.9 km/h 47 % 0.0 mm 329.0 W/m2 CLR
18:03 20.7 °C 8.9 °C 1017.2 hPa NW 31.5 km/h 31.5 km/h 47 % 0.0 mm 563.0 W/m2 CLR
18:08 20.8 °C 8.8 °C 1017.5 hPa NNW 33.3 km/h 33.3 km/h 46 % 0.0 mm 554.0 W/m2 CLR
18:13 20.8 °C 8.4 °C 1017.5 hPa NW 33.3 km/h 33.3 km/h 45 % 0.0 mm 325.0 W/m2 CLR
18:18 20.5 °C 8.5 °C 1017.5 hPa NNW 25.9 km/h 25.9 km/h 46 % 0.0 mm 202.0 W/m2 CLR
18:23 20.2 °C 8.2 °C 1017.5 hPa NNW 24.1 km/h 24.1 km/h 46 % 0.0 mm 216.0 W/m2 CLR
18:28 20.4 °C 8.4 °C 1017.5 hPa NW 22.5 km/h 22.5 km/h 46 % 0.0 mm 397.0 W/m2 CLR
18:33 20.4 °C 8.4 °C 1017.5 hPa West 12.9 km/h 12.9 km/h 46 % 0.0 mm 86.0 W/m2 CLR
18:38 20.2 °C 8.2 °C 1017.5 hPa WNW 13.0 km/h 13.0 km/h 46 % 0.0 mm 76.0 W/m2 CLR
18:43 20.0 °C 8.0 °C 1017.5 hPa WNW 18.5 km/h 18.5 km/h 46 % 0.0 mm 67.0 W/m2 FEW
18:48 19.9 °C 8.2 °C 1017.5 hPa West 19.3 km/h 19.3 km/h 47 % 0.0 mm 60.0 W/m2 FEW
18:53 19.9 °C 8.2 °C 1017.5 hPa NW 16.7 km/h 16.7 km/h 47 % 0.0 mm 109.0 W/m2 FEW
18:58 20.2 °C 8.2 °C 1017.8 hPa WNW 20.4 km/h 20.4 km/h 46 % 0.0 mm 276.0 W/m2 FEW
19:03 20.4 °C 8.4 °C 1017.5 hPa WNW 20.9 km/h 20.9 km/h 46 % 0.0 mm 251.0 W/m2 CLR
19:08 20.5 °C 8.5 °C 1017.8 hPa NNW 20.4 km/h 20.4 km/h 46 % 0.0 mm 230.0 W/m2 CLR
19:13 20.5 °C 8.5 °C 1017.8 hPa NW 16.7 km/h 16.7 km/h 46 % 0.0 mm 221.0 W/m2 CLR
19:18 20.4 °C 8.4 °C 1017.8 hPa NW 18.5 km/h 18.5 km/h 46 % 0.0 mm 190.0 W/m2 CLR
19:23 20.1 °C 8.1 °C 1017.8 hPa NW 22.2 km/h 22.2 km/h 46 % 0.0 mm 163.0 W/m2 CLR
19:28 19.9 °C 7.9 °C 1017.8 hPa NNW 27.8 km/h 27.8 km/h 46 % 0.0 mm 139.0 W/m2 CLR
19:33 19.8 °C 8.1 °C 1017.8 hPa WNW 22.2 km/h 22.2 km/h 47 % 0.0 mm 88.0 W/m2 CLR
19:38 19.8 °C 8.1 °C 1017.8 hPa WNW 18.5 km/h 18.5 km/h 47 % 0.0 mm 95.0 W/m2 CLR
19:43 19.6 °C 7.9 °C 1017.5 hPa WNW 18.5 km/h 18.5 km/h 47 % 0.0 mm 44.0 W/m2 BKN
19:48 19.3 °C 7.7 °C 1017.8 hPa WNW 31.5 km/h 31.5 km/h 47 % 0.0 mm 81.0 W/m2 FEW
19:53 19.2 °C 7.9 °C 1017.8 hPa WNW 20.4 km/h 20.4 km/h 48 % 0.0 mm 67.0 W/m2 FEW
19:58 19.2 °C 7.6 °C 1017.8 hPa NW 31.5 km/h 31.5 km/h 47 % 0.0 mm 51.0 W/m2 SCT
20:03 19.1 °C 7.5 °C 1017.8 hPa NW 25.9 km/h 25.9 km/h 47 % 0.0 mm 44.0 W/m2 BKN
20:08 19.0 °C 7.4 °C 1018.2 hPa NW 33.8 km/h 33.8 km/h 47 % 0.0 mm 35.0 W/m2 BKN
20:13 18.8 °C 7.6 °C 1018.2 hPa WNW 24.1 km/h 24.1 km/h 48 % 0.0 mm 19.0 W/m2 BKN
20:18 18.6 °C 7.4 °C 1018.2 hPa WNW 13.0 km/h 13.0 km/h 48 % 0.0 mm 14.0 W/m2 BKN
20:23 18.4 °C 7.5 °C 1018.5 hPa WNW 22.5 km/h 22.5 km/h 49 % 0.0 mm 12.0 W/m2 BKN
20:28 18.2 °C 7.6 °C 1018.5 hPa WNW 20.9 km/h 20.9 km/h 50 % 0.0 mm 11.0 W/m2 BKN
20:33 18.2 °C 7.6 °C 1018.5 hPa WNW 18.5 km/h 18.5 km/h 50 % 0.0 mm 7.0 W/m2 BKN
20:38 18.1 °C 7.4 °C 1018.8 hPa WNW 24.1 km/h 24.1 km/h 50 % 0.0 mm 0.0 W/m2 OVC
20:43 18.0 °C 7.4 °C 1018.8 hPa NW 18.5 km/h 18.5 km/h 50 % 0.0 mm 0.0 W/m2 OVC
20:48 17.9 °C 7.6 °C 1018.8 hPa WNW 14.5 km/h 14.5 km/h 51 % 0.0 mm 0.0 W/m2 OVC
20:53 17.8 °C 7.5 °C 1018.8 hPa WNW 18.5 km/h 18.5 km/h 51 % 0.0 mm 0.0 W/m2 CLR
20:58 17.7 °C 7.4 °C 1018.8 hPa WNW 11.3 km/h 11.3 km/h 51 % 0.0 mm 0.0 W/m2 CLR
21:03 17.6 °C 7.3 °C 1019.2 hPa SW 18.5 km/h 18.5 km/h 51 % 0.0 mm 0.0 W/m2 CLR
21:08 17.5 °C 7.2 °C 1019.2 hPa NW 27.8 km/h 27.8 km/h 51 % 0.0 mm 0.0 W/m2 CLR
21:13 17.4 °C 6.8 °C 1019.2 hPa West 27.8 km/h 27.8 km/h 50 % 0.0 mm 0.0 W/m2 CLR
21:18 17.3 °C 6.8 °C 1019.5 hPa West 27.8 km/h 27.8 km/h 50 % 0.0 mm 0.0 W/m2 CLR
21:23 17.2 °C 6.7 °C 1019.9 hPa West 24.1 km/h 24.1 km/h 50 % 0.0 mm 0.0 W/m2 CLR
21:28 17.1 °C 6.6 °C 1019.9 hPa WNW 31.5 km/h 31.5 km/h 50 % 0.0 mm 0.0 W/m2 CLR
21:33 16.9 °C 6.4 °C 1019.9 hPa WNW 20.4 km/h 20.4 km/h 50 % 0.0 mm 0.0 W/m2 CLR
21:38 16.8 °C 6.6 °C 1019.9 hPa WNW 20.9 km/h 20.9 km/h 51 % 0.0 mm 0.0 W/m2 CLR
21:43 16.6 °C 6.4 °C 1020.2 hPa WNW 22.2 km/h 22.2 km/h 51 % 0.0 mm 0.0 W/m2 CLR
21:48 16.4 °C 6.2 °C 1020.2 hPa WNW 16.7 km/h 16.7 km/h 51 % 0.0 mm 0.0 W/m2 CLR
21:53 16.3 °C 6.4 °C 1020.5 hPa West 18.5 km/h 18.5 km/h 52 % 0.0 mm 0.0 W/m2 CLR
21:58 16.2 °C 6.3 °C 1020.5 hPa WNW 16.7 km/h 16.7 km/h 52 % 0.0 mm 0.0 W/m2 CLR
22:03 16.1 °C 6.2 °C 1020.5 hPa NW 20.4 km/h 20.4 km/h 52 % 0.0 mm 0.0 W/m2 CLR
22:08 16.0 °C 6.4 °C 1020.9 hPa West 5.6 km/h 5.6 km/h 53 % 0.0 mm 0.0 W/m2 CLR
22:10 16.0 °C 6.4 °C 1020.9 hPa NW 12.9 km/h 12.9 km/h 53 % 0.0 mm 0.0 W/m2 CLR
22:15 15.9 °C 6.4 °C 1020.9 hPa WNW 3.7 km/h 3.7 km/h 53 % 0.0 mm 0.0 W/m2 CLR
22:20 15.8 °C 6.3 °C 1020.9 hPa WNW 14.5 km/h 14.5 km/h 53 % 0.0 mm 0.0 W/m2 CLR
22:25 15.8 °C 6.2 °C 1021.2 hPa WNW 20.4 km/h 20.4 km/h 53 % 0.0 mm 0.0 W/m2 CLR
22:30 15.7 °C 6.4 °C 1021.2 hPa NW 20.4 km/h 20.4 km/h 54 % 0.0 mm 0.0 W/m2 CLR
22:35 15.6 °C 6.3 °C 1021.2 hPa WNW 27.8 km/h 27.8 km/h 54 % 0.0 mm 0.0 W/m2 CLR
22:40 15.6 °C 6.3 °C 1021.2 hPa NW 31.5 km/h 31.5 km/h 54 % 0.0 mm 0.0 W/m2 CLR
22:45 15.5 °C 6.2 °C 1021.2 hPa WNW 24.1 km/h 24.1 km/h 54 % 0.0 mm 0.0 W/m2 CLR
22:50 15.3 °C 6.3 °C 1021.2 hPa WNW 27.8 km/h 27.8 km/h 55 % 0.0 mm 0.0 W/m2 CLR
22:55 15.3 °C 6.3 °C 1021.2 hPa WNW 27.4 km/h 27.4 km/h 55 % 0.0 mm 0.0 W/m2 CLR
23:00 15.3 °C 6.3 °C 1021.2 hPa WNW 35.4 km/h 35.4 km/h 55 % 0.0 mm 0.0 W/m2 CLR
23:05 15.3 °C 6.3 °C 1021.2 hPa West 27.8 km/h 27.8 km/h 55 % 0.0 mm 0.0 W/m2 CLR
23:10 15.2 °C 6.2 °C 1021.6 hPa NW 33.3 km/h 33.3 km/h 55 % 0.0 mm 0.0 W/m2 CLR
23:15 15.1 °C 6.4 °C 1021.6 hPa WNW 27.8 km/h 27.8 km/h 56 % 0.0 mm 0.0 W/m2 CLR
23:20 15.0 °C 6.3 °C 1021.9 hPa NW 24.1 km/h 24.1 km/h 56 % 0.0 mm 0.0 W/m2 CLR
23:25 14.9 °C 6.2 °C 1021.9 hPa WNW 25.9 km/h 25.9 km/h 56 % 0.0 mm 0.0 W/m2 CLR
23:30 14.8 °C 6.1 °C 1021.9 hPa NNW 27.8 km/h 27.8 km/h 56 % 0.0 mm 0.0 W/m2 CLR
23:35 14.8 °C 6.1 °C 1021.6 hPa WNW 24.1 km/h 24.1 km/h 56 % 0.0 mm 0.0 W/m2 CLR
23:40 14.7 °C 6.3 °C 1021.2 hPa WNW 37.0 km/h 37.0 km/h 57 % 0.0 mm 0.0 W/m2 CLR
23:45 14.8 °C 6.1 °C 1021.2 hPa WNW 35.4 km/h 35.4 km/h 56 % 0.0 mm 0.0 W/m2 CLR
23:50 14.8 °C 6.1 °C 1021.2 hPa West 27.8 km/h 27.8 km/h 56 % 0.0 mm 0.0 W/m2 CLR
23:55 14.8 °C 6.1 °C 1021.6 hPa West 35.2 km/h 35.2 km/h 56 % 0.0 mm 0.0 W/m2 CLR
Lo Temps de Massalio
Compliments of Weather Underground - 1.25 mb